Alta, Wyoming
Current Conditions -  °F | °C
As of 7:56 AM on Friday 31 Oct 2014 (Local Time) from KDIJ Reporting Station
Clear Clear  
Wind Chill: 40°   Ceiling: Unl
Heat Index: 45°   Visibility: 10mi
Dew Point: 26°   Wind: 10mph
Humidity: 48%   Direction: 170°S
Pressure: 30.05"   Gusts: NA
Location:  43.77°N, 110.98°W
Report Text: KDIJ 311356Z AUTO 17009KT 10SM CLR 07/M03 A3005 RMK AO2 T00721033 SLP133
Loading
Personal Weather Stations






























Interactive Weather Map
Tropical Storm Tracking
New forecast layout! Learn more

10-Day Weather Forecast

Advertisements
Track Severe Weather on mobile